Time;durP1;ratioP1;P1;durP2;ratioP2;P2;SDS_P1;SDS_P2;PMS_P1;PMS_P2;Temp;Humidity;BMP_temperature;BMP_pressure;BME280_temperature;BME280_humidity;BME280_pressure;Samples;Min_cycle;Max_cycle;Signal;HPM_P1;HPM_P2
2021/07/28 00:02:23;;;;;;;14.98;9.30;;;;;;;22.70;100.00;98918.99;1799808;79;21003;-75
2021/07/28 00:04:53;;;;;;;64.20;13.75;;;;;;;22.70;100.00;98922.16;1800036;79;20845;-76
2021/07/28 00:07:24;;;;;;;58.30;13.95;;;;;;;22.68;100.00;98916.01;1800038;79;20893;-76
2021/07/28 00:09:55;;;;;;;61.55;12.45;;;;;;;22.68;100.00;98920.05;1799926;79;20919;-76
2021/07/28 00:12:23;;;;;;;49.13;11.33;;;;;;;22.68;100.00;98924.94;1800540;79;21066;-76
2021/07/28 00:14:55;;;;;;;38.25;10.08;;;;;;;22.70;100.00;98928.88;1799761;79;20880;-76
2021/07/28 00:17:27;;;;;;;31.73;10.73;;;;;;;22.71;100.00;98920.77;1800701;79;20916;-76
2021/07/28 00:20:05;;;;;;;21.90;9.40;;;;;;;22.71;100.00;98924.80;1800151;79;20949;-74
2021/07/28 00:25:30;;;;;;;15.83;9.53;;;;;;;22.70;100.00;98932.44;1721571;82;21355;-76
2021/07/28 00:28:01;;;;;;;19.77;9.18;;;;;;;22.68;100.00;98926.77;1800173;79;20881;-75
2021/07/28 00:30:31;;;;;;;13.78;9.53;;;;;;;22.66;100.00;98926.85;1799771;79;20919;-75
2021/07/28 00:33:01;;;;;;;25.57;9.68;;;;;;;22.65;100.00;98929.63;1798826;79;20837;-76
2021/07/28 00:35:30;;;;;;;19.85;10.15;;;;;;;22.64;100.00;98930.11;1788539;80;20892;-75
2021/07/28 00:38:08;;;;;;;17.60;9.20;;;;;;;22.63;100.00;98927.90;1788906;79;21115;-76
2021/07/28 00:40:39;;;;;;;17.23;9.58;;;;;;;22.61;100.00;98928.95;1788859;79;20960;-76
2021/07/28 00:43:14;;;;;;;32.10;11.00;;;;;;;22.59;100.00;98931.73;1788831;79;20877;-76
2021/07/28 00:45:45;;;;;;;24.37;10.38;;;;;;;22.57;100.00;98925.58;1711344;82;21605;-76
2021/07/28 00:48:15;;;;;;;25.12;9.98;;;;;;;22.55;100.00;98927.48;1733311;82;21586;-76
2021/07/28 00:50:46;;;;;;;17.15;10.93;;;;;;;22.54;100.00;98929.78;1733290;82;21999;-75
2021/07/28 00:53:18;;;;;;;14.85;9.70;;;;;;;22.52;100.00;98933.04;1712195;82;20960;-76
2021/07/28 00:55:53;;;;;;;11.97;8.75;;;;;;;22.52;100.00;98936.20;1741082;82;20961;-74
2021/07/28 00:58:23;;;;;;;21.90;10.60;;;;;;;22.53;100.00;98940.15;1733281;82;21146;-75
2021/07/28 01:00:52;;;;;;;18.40;10.25;;;;;;;22.55;100.00;98943.61;1733045;82;20979;-75
2021/07/28 01:03:25;;;;;;;14.45;9.60;;;;;;;22.56;100.00;98946.69;1711836;82;21990;-75
2021/07/28 01:05:57;;;;;;;21.60;10.28;;;;;;;22.57;100.00;98952.45;1740936;81;20949;-75
2021/07/28 01:08:27;;;;;;;17.82;9.90;;;;;;;22.57;100.00;98944.87;1733008;82;21007;-75
2021/07/28 01:10:59;;;;;;;14.65;10.23;;;;;;;22.55;100.00;98939.58;1711426;82;21474;-76
2021/07/28 07:31:00;;;;;;;14.80;7.50;;;;;;;29.57;100.00;98872.39;1788751;79;22782;-67
2021/07/28 07:33:38;;;;;;;97.05;12.07;;;;;;;29.66;100.00;98879.23;1728944;81;21435;-67
2021/07/28 07:36:13;;;;;;;15.28;7.58;;;;;;;29.82;100.00;98880.61;1728261;81;21082;-68
2021/07/28 07:38:41;;;;;;;18.48;7.45;;;;;;;29.97;100.00;98886.89;1727565;81;21014;-67
2021/07/28 07:41:08;;;;;;;16.48;7.55;;;;;;;30.11;100.00;98888.89;1727379;82;21030;-67
2021/07/28 07:43:38;;;;;;;15.45;7.80;;;;;;;30.24;100.00;98885.41;1726707;81;20942;-68
2021/07/28 07:46:05;;;;;;;25.88;7.80;;;;;;;30.34;100.00;98889.05;1727431;82;20947;-68
2021/07/28 07:48:33;;;;;;;16.93;7.62;;;;;;;30.44;100.00;98883.62;1727662;83;21146;-68
2021/07/28 07:51:01;;;;;;;10.03;6.80;;;;;;;30.55;100.00;98884.84;1727447;83;21490;-67
2021/07/28 07:53:28;;;;;;;15.23;7.70;;;;;;;30.66;100.00;98892.91;1726806;81;21486;-68
2021/07/28 07:55:57;;;;;;;12.85;7.60;;;;;;;30.76;100.00;98891.58;1744011;81;21415;-68
2021/07/28 07:58:25;;;;;;;18.23;7.70;;;;;;;30.86;100.00;98891.08;1727943;81;21451;-68
2021/07/28 08:00:53;;;;;;;10.43;6.55;;;;;;;30.98;100.00;98894.01;1732496;81;21107;-67
2021/07/28 08:03:21;;;;;;;11.97;5.90;;;;;;;31.07;100.00;98893.64;1741308;81;20999;-68
2021/07/28 08:05:49;;;;;;;13.55;5.90;;;;;;;31.16;100.00;98897.74;1728122;81;20983;-66
2021/07/28 08:08:17;;;;;;;12.50;6.10;;;;;;;31.24;100.00;98895.69;1728201;81;21400;-68
2021/07/28 08:10:46;;;;;;;13.68;5.60;;;;;;;31.33;100.00;98894.80;1728123;83;20900;-68
2021/07/28 08:13:14;;;;;;;12.45;5.30;;;;;;;31.44;100.00;98896.50;1728399;81;21155;-68
2021/07/28 08:15:42;;;;;;;11.68;5.55;;;;;;;31.51;100.00;98894.39;1730559;81;21489;-68
2021/07/28 08:18:10;;;;;;;15.65;5.70;;;;;;;31.58;100.00;98886.48;1742454;81;21572;-67
2021/07/28 08:20:38;;;;;;;12.05;5.10;;;;;;;31.67;100.00;98896.49;1728150;81;20946;-68
2021/07/28 08:23:06;;;;;;;10.65;5.75;;;;;;;31.75;100.00;98893.95;1745789;81;21049;-68
2021/07/28 08:25:34;;;;;;;23.77;6.37;;;;;;;31.83;100.00;98896.78;1728124;82;21156;-67
2021/07/28 08:28:03;;;;;;;11.43;5.28;;;;;;;31.89;100.00;98896.18;1728029;82;20939;-67
2021/07/28 08:30:30;;;;;;;12.90;5.33;;;;;;;31.96;100.00;98896.44;1737052;81;20971;-68
2021/07/28 08:32:58;;;;;;;11.05;4.95;;;;;;;32.02;100.00;98897.70;1745899;81;20952;-67
2021/07/28 08:35:26;;;;;;;8.93;5.25;;;;;;;32.07;100.00;98894.87;1728391;81;20884;-67
2021/07/28 08:37:53;;;;;;;19.48;4.92;;;;;;;32.12;100.00;98892.55;1728462;83;21171;-68
2021/07/28 08:40:21;;;;;;;8.53;5.40;;;;;;;32.20;100.00;98894.55;1728216;82;20991;-67
2021/07/28 08:42:52;;;;;;;11.83;4.92;;;;;;;32.26;100.00;98899.42;1728129;81;21045;-67
2021/07/28 08:45:21;;;;;;;8.98;4.60;;;;;;;32.31;100.00;98897.09;1727979;83;20947;-68
2021/07/28 08:47:48;;;;;;;10.15;5.40;;;;;;;32.36;100.00;98896.13;1728128;82;20977;-69
2021/07/28 08:50:16;;;;;;;15.40;5.15;;;;;;;32.43;100.00;98897.23;1727426;83;21164;-69
2021/07/28 08:52:44;;;;;;;14.20;5.45;;;;;;;32.51;100.00;98897.82;1727744;81;20931;-62
2021/07/28 08:55:12;;;;;;;11.63;5.25;;;;;;;32.58;100.00;98893.96;1727747;81;21015;-68
2021/07/28 08:57:40;;;;;;;15.43;5.05;;;;;;;32.66;100.00;98899.03;1728052;81;21530;-64
2021/07/28 09:00:09;;;;;;;13.83;4.83;;;;;;;32.73;100.00;98893.80;1739780;81;20921;-63
2021/07/28 09:02:37;;;;;;;13.65;4.85;;;;;;;32.79;100.00;98888.61;1740464;81;21126;-62
2021/07/28 09:05:06;;;;;;;12.20;4.72;;;;;;;32.88;99.81;98896.36;1744438;80;20880;-65
2021/07/28 09:07:40;;;;;;;9.75;5.12;;;;;;;32.97;100.00;98895.42;1733065;81;21783;-64
2021/07/28 09:10:13;;;;;;;13.88;5.03;;;;;;;33.04;98.61;98892.91;1737616;81;21526;-66
2021/07/28 09:12:44;;;;;;;17.52;5.45;;;;;;;33.11;96.08;98892.16;1727842;83;21006;-65
2021/07/28 09:15:16;;;;;;;9.10;4.87;;;;;;;33.19;98.42;98892.73;1745337;80;21437;-65
2021/07/28 09:17:47;;;;;;;10.00;5.40;;;;;;;33.27;98.42;98898.25;1757287;80;21049;-64
2021/07/28 09:20:24;;;;;;;9.00;4.85;;;;;;;33.34;93.92;98888.42;1748855;81;21568;-64
2021/07/28 09:22:52;;;;;;;12.85;5.22;;;;;;;33.41;92.35;98886.77;1727323;81;21010;-64
2021/07/28 09:27:51;;;;;;;17.35;5.45;;;;;;;33.59;92.15;98885.38;1728179;83;21140;-64
2021/07/28 09:30:27;;;;;;;11.12;4.42;;;;;;;33.68;88.70;98885.77;1727594;81;21526;-64
2021/07/28 09:33:09;;;;;;;12.15;5.12;;;;;;;33.77;88.29;98882.56;1724796;81;20927;-66
2021/07/28 09:35:54;;;;;;;16.00;5.05;;;;;;;33.87;89.44;98887.94;1727957;83;20900;-65
2021/07/28 09:38:35;;;;;;;12.68;4.60;;;;;;;33.95;88.87;98889.35;1693309;83;20946;-64
2021/07/28 09:41:19;;;;;;;8.43;4.53;;;;;;;34.01;87.78;98884.59;1675020;85;21188;-66
2021/07/28 09:43:51;;;;;;;10.78;4.78;;;;;;;34.06;81.78;98882.24;1675415;85;21559;-66
2021/07/28 09:46:38;;;;;;;12.82;5.00;;;;;;;34.12;84.31;98882.95;1675560;85;20944;-67
2021/07/28 09:49:08;;;;;;;11.08;4.33;;;;;;;34.19;86.83;98880.41;1652122;85;20964;-66
2021/07/28 09:51:41;;;;;;;9.13;5.00;;;;;;;34.27;84.90;98877.70;1675622;85;20932;-66
2021/07/28 09:54:11;;;;;;;12.10;4.97;;;;;;;34.33;81.76;98873.81;1675665;85;21153;-66
2021/07/28 09:56:59;;;;;;;8.48;4.45;;;;;;;34.36;84.08;98877.58;1675455;85;20999;-66
2021/07/28 09:59:24;;;;;;;12.98;5.05;;;;;;;34.44;82.61;98876.74;1674709;85;20945;-66
2021/07/28 10:01:52;;;;;;;16.80;5.45;;;;;;;34.52;80.49;98873.16;1675394;85;21511;-66
2021/07/28 10:04:21;;;;;;;10.53;4.97;;;;;;;34.56;81.43;98869.95;1675419;85;21451;-66
2021/07/28 10:06:52;;;;;;;13.03;6.17;;;;;;;34.63;79.90;98861.91;1675418;85;21160;-66
2021/07/28 10:09:27;;;;;;;9.23;5.40;;;;;;;34.68;79.31;98858.16;1653091;85;20960;-66
2021/07/28 10:11:57;;;;;;;10.90;5.20;;;;;;;34.72;78.31;98865.01;1675659;85;21360;-66
2021/07/28 10:14:26;;;;;;;10.83;4.53;;;;;;;34.83;78.29;98866.59;1675971;85;21459;-66
2021/07/28 10:16:55;;;;;;;15.00;4.83;;;;;;;34.88;67.97;98855.45;1675291;85;22285;-66
2021/07/28 10:19:24;;;;;;;11.30;5.28;;;;;;;34.85;64.38;98854.43;1675550;85;21093;-66
2021/07/28 10:21:52;;;;;;;9.73;4.97;;;;;;;34.84;71.24;98851.34;1675347;85;20940;-65
2021/07/28 10:24:22;;;;;;;14.30;5.00;;;;;;;34.89;75.13;98858.53;1675461;85;21506;-65
2021/07/28 10:26:51;;;;;;;15.30;5.58;;;;;;;34.98;77.39;98853.39;1675354;85;20992;-63
2021/07/28 10:29:20;;;;;;;10.43;5.22;;;;;;;35.06;76.86;98852.57;1652500;85;20956;-64
2021/07/28 10:31:53;;;;;;;10.65;4.85;;;;;;;35.14;78.80;98850.33;1650125;86;21472;-66
2021/07/28 10:34:33;;;;;;;9.30;4.83;;;;;;;35.20;77.25;98846.39;1667309;85;20992;-66
2021/07/28 10:37:07;;;;;;;18.75;5.20;;;;;;;35.20;71.57;98845.53;1667322;85;20905;-67
2021/07/28 10:39:42;;;;;;;11.20;4.95;;;;;;;35.14;72.39;98847.08;1685782;83;20936;-65
2021/07/28 10:42:35;;;;;;;11.57;4.85;;;;;;;35.16;73.39;98847.77;1667628;86;21415;-67
2021/07/28 10:45:11;;;;;;;10.72;4.80;;;;;;;35.23;73.56;98846.03;1680337;84;21554;-66
2021/07/28 10:47:44;;;;;;;9.40;4.90;;;;;;;35.30;74.28;98846.20;1684043;84;20928;-66
2021/07/28 10:50:29;;;;;;;9.58;4.60;;;;;;;35.32;70.63;98848.25;1693021;84;21499;-66
2021/07/28 10:53:00;;;;;;;10.40;4.80;;;;;;;35.32;68.21;98853.73;1680086;84;20956;-66
2021/07/28 10:55:37;;;;;;;11.53;4.72;;;;;;;35.28;65.01;98852.38;1680167;84;20958;-65
2021/07/28 10:58:13;;;;;;;15.95;6.58;;;;;;;35.17;64.99;98845.88;1679860;85;21164;-64
2021/07/28 11:00:48;;;;;;;10.93;4.92;;;;;;;35.01;66.24;98848.97;1680190;84;21008;-66
2021/07/28 11:03:20;;;;;;;36.83;16.75;;;;;;;34.82;67.17;98847.03;1680074;84;20900;-66
2021/07/28 11:05:50;;;;;;;85.15;48.92;;;;;;;34.62;65.97;98843.77;1680459;84;20968;-67
2021/07/28 11:08:22;;;;;;;99.52;58.70;;;;;;;34.41;66.96;98840.11;1680185;84;20900;-66
2021/07/28 11:11:01;;;;;;;94.22;56.13;;;;;;;34.20;69.54;98843.28;1680118;84;21152;-67
2021/07/28 11:13:31;;;;;;;47.20;27.85;;;;;;;34.00;72.76;98843.19;1679913;85;21419;-65
2021/07/28 11:16:07;;;;;;;27.58;15.03;;;;;;;33.79;74.41;98843.08;1680309;84;21533;-67
2021/07/28 11:18:48;;;;;;;25.00;10.00;;;;;;;33.62;75.65;98848.63;1680011;85;20928;-67
2021/07/28 11:21:32;;;;;;;29.42;7.25;;;;;;;33.42;81.36;98843.88;1679986;85;20880;-67
2021/07/28 11:24:06;;;;;;;18.52;6.00;;;;;;;33.25;85.81;98839.30;1680061;85;21155;-67
2021/07/28 11:26:45;;;;;;;12.23;5.12;;;;;;;33.07;89.32;98847.00;1680245;85;20936;-67
2021/07/28 11:29:20;;;;;;;14.45;6.42;;;;;;;32.94;89.26;98849.80;1679990;85;20920;-67
2021/07/28 11:31:49;;;;;;;21.85;6.78;;;;;;;32.72;85.52;98854.70;1684307;85;20964;-66
2021/07/28 11:34:22;;;;;;;21.00;6.85;;;;;;;32.45;86.69;98849.30;1685293;85;20955;-66
2021/07/28 11:37:02;;;;;;;15.60;6.25;;;;;;;32.22;89.70;98845.61;1685371;85;21151;-63
2021/07/28 11:39:32;;;;;;;14.65;5.75;;;;;;;32.10;96.55;98845.95;1685595;85;20892;-63
2021/07/28 11:42:08;;;;;;;15.15;6.60;;;;;;;32.05;98.86;98840.95;1685380;85;20983;-66
2021/07/28 11:44:42;;;;;;;16.67;6.78;;;;;;;32.00;99.28;98832.38;1685722;85;21407;-68
2021/07/28 11:47:11;;;;;;;20.88;6.87;;;;;;;31.97;99.68;98835.91;1685430;85;20960;-69
2021/07/28 11:49:38;;;;;;;16.80;5.87;;;;;;;31.98;100.00;98823.98;1685607;85;21840;-69
2021/07/28 11:52:06;;;;;;;16.82;5.95;;;;;;;32.05;100.00;98821.00;1659744;85;20944;-68
2021/07/28 11:54:34;;;;;;;14.83;6.33;;;;;;;32.20;100.00;98821.72;1687175;83;21085;-68
2021/07/28 11:57:04;;;;;;;17.07;6.08;;;;;;;32.41;100.00;98820.59;1699448;83;20963;-66
2021/07/28 11:59:35;;;;;;;17.32;5.72;;;;;;;32.58;100.00;98820.23;1690841;83;20877;-67
2021/07/28 12:02:04;;;;;;;15.23;5.90;;;;;;;32.72;99.19;98811.00;1696326;83;21426;-67
2021/07/28 12:04:35;;;;;;;22.45;6.37;;;;;;;32.88;95.00;98819.02;1685336;85;20944;-67
2021/07/28 12:07:14;;;;;;;14.00;5.33;;;;;;;33.08;96.61;98816.43;1686012;85;21459;-62
2021/07/28 12:09:42;;;;;;;12.33;5.58;;;;;;;33.31;92.00;98809.98;1685379;85;20955;-70
2021/07/28 12:12:20;;;;;;;19.87;10.38;;;;;;;33.54;88.48;98815.23;1685394;85;21526;-67
2021/07/28 12:14:48;;;;;;;15.28;7.17;;;;;;;33.73;88.83;98810.05;1685460;85;21910;-68
2021/07/28 12:17:22;;;;;;;10.03;5.60;;;;;;;33.93;87.36;98810.16;1702208;83;21031;-67
2021/07/28 12:20:05;;;;;;;13.90;8.95;;;;;;;34.08;79.94;98803.56;1693922;83;20979;-66
2021/07/28 12:22:39;;;;;;;12.18;5.70;;;;;;;34.27;81.41;98807.36;1690397;83;21047;-66
2021/07/28 12:25:16;;;;;;;17.45;5.03;;;;;;;34.39;73.82;98803.31;1685689;85;20904;-66
2021/07/28 12:28:01;;;;;;;13.65;5.87;;;;;;;34.43;69.65;98801.60;1667683;83;21233;-67
2021/07/28 12:30:40;;;;;;;19.57;5.62;;;;;;;34.51;69.91;98807.09;1697761;83;21146;-67
2021/07/28 12:33:13;;;;;;;21.90;9.40;;;;;;;34.53;64.70;98794.08;1665334;84;21431;-65
2021/07/28 12:35:46;;;;;;;12.30;5.65;;;;;;;34.56;65.32;98801.47;1665212;86;20881;-65
2021/07/28 12:38:23;;;;;;;14.23;5.80;;;;;;;34.60;63.15;98799.25;1665298;84;20952;-64
2021/07/28 12:41:02;;;;;;;53.75;40.73;;;;;;;34.60;64.24;98791.03;1665355;85;21084;-66
2021/07/28 12:43:37;;;;;;;21.55;10.78;;;;;;;34.62;62.77;98784.87;1695150;83;21661;-67
2021/07/28 12:46:06;;;;;;;14.13;6.12;;;;;;;34.69;64.73;98784.52;1680229;85;21008;-66
2021/07/28 12:48:38;;;;;;;21.77;6.08;;;;;;;34.75;61.66;98776.98;1680507;85;20932;-66
2021/07/28 12:51:08;;;;;;;15.53;6.25;;;;;;;34.66;57.85;98774.77;1680373;84;20960;-66
2021/07/28 12:53:37;;;;;;;20.25;9.50;;;;;;;34.64;61.25;98775.97;1680545;85;21129;-66
2021/07/28 12:56:07;;;;;;;23.42;14.35;;;;;;;34.73;65.78;98763.98;1679993;85;20979;-67
2021/07/28 12:58:35;;;;;;;19.87;7.72;;;;;;;34.90;67.31;98765.70;1680252;85;20992;-67
2021/07/28 13:01:04;;;;;;;24.85;7.70;;;;;;;35.03;64.14;98756.46;1680075;85;21078;-67
2021/07/28 13:03:35;;;;;;;16.85;8.20;;;;;;;35.14;64.25;98760.72;1680426;84;21645;-67
2021/07/28 13:06:06;;;;;;;18.85;6.22;;;;;;;35.22;63.79;98752.98;1653004;85;21114;-67
2021/07/28 13:08:33;;;;;;;9.33;4.90;;;;;;;35.30;60.09;98757.08;1678487;84;20999;-67
2021/07/28 13:11:00;;;;;;;10.10;4.80;;;;;;;35.36;58.34;98747.31;1678978;85;20932;-68
2021/07/28 13:13:28;;;;;;;10.20;5.12;;;;;;;35.36;57.40;98740.46;1680330;85;20955;-67
2021/07/28 13:15:59;;;;;;;11.60;5.42;;;;;;;35.36;59.47;98745.95;1680121;85;20916;-67
2021/07/28 13:18:28;;;;;;;;;;;;;;;35.40;61.71;98736.33;1682966;84;21149;-64
2021/07/28 13:20:56;;;;;;;15.05;5.42;;;;;;;35.48;64.92;98739.08;1683425;84;20120;-67
2021/07/28 13:23:24;;;;;;;35.13;22.10;;;;;;;35.55;61.81;98737.33;1688223;84;21467;-64
2021/07/28 13:25:52;;;;;;;38.08;24.02;;;;;;;35.64;62.80;98730.77;1680046;84;20952;-66
2021/07/28 13:28:20;;;;;;;22.93;14.13;;;;;;;35.73;59.77;98724.20;1692583;83;20964;-67
2021/07/28 13:30:48;;;;;;;10.38;6.72;;;;;;;35.81;64.45;98720.07;1680868;84;21791;-67
2021/07/28 13:33:16;;;;;;;15.15;6.20;;;;;;;35.91;64.40;98721.22;1680022;84;20947;-68
2021/07/28 13:35:44;;;;;;;14.07;5.42;;;;;;;35.98;65.42;98716.74;1680048;84;20980;-67
2021/07/28 13:38:11;;;;;;;12.40;5.62;;;;;;;36.04;60.96;98719.28;1686251;84;20921;-68
2021/07/28 13:40:39;;;;;;;25.70;5.97;;;;;;;36.08;58.99;98709.64;1680106;85;21011;-64
2021/07/28 13:43:06;;;;;;;38.83;6.75;;;;;;;36.09;56.80;98705.34;1680081;84;21125;-67
2021/07/28 13:45:35;;;;;;;14.93;5.15;;;;;;;36.10;60.68;98702.92;1679961;84;20932;-69
2021/07/28 13:48:04;;;;;;;16.07;5.60;;;;;;;36.10;62.34;98704.30;1680324;85;20991;-69
2021/07/28 13:50:31;;;;;;;11.75;5.37;;;;;;;36.13;62.43;98703.94;1680088;85;20999;-69
2021/07/28 13:52:59;;;;;;;42.10;7.25;;;;;;;36.18;63.32;98697.37;1680394;84;21047;-70
2021/07/28 13:55:28;;;;;;;25.75;5.22;;;;;;;36.24;63.24;98699.91;1708546;83;21174;-69
2021/07/28 13:57:55;;;;;;;14.10;5.42;;;;;;;36.25;58.92;98701.09;1703946;82;20977;-71
2021/07/28 14:00:24;;;;;;;26.33;5.58;;;;;;;36.26;58.51;98693.19;1707181;83;21475;-65
2021/07/28 14:02:51;;;;;;;28.07;5.55;;;;;;;36.25;59.55;98692.86;1708642;83;21051;-66
2021/07/28 14:05:19;;;;;;;32.73;7.08;;;;;;;36.24;60.23;98688.40;1708556;83;21039;-66
2021/07/28 14:07:46;;;;;;;20.35;5.33;;;;;;;36.23;59.43;98676.23;1708737;83;22001;-66
2021/07/28 14:10:15;;;;;;;20.12;5.45;;;;;;;36.19;55.28;98674.37;1708746;83;21471;-67
2021/07/28 14:12:44;;;;;;;18.63;5.27;;;;;;;36.12;55.29;98666.53;1709339;83;20940;-67
2021/07/28 14:15:12;;;;;;;15.63;5.00;;;;;;;36.02;54.40;98661.81;1708610;83;21036;-66
2021/07/28 14:17:39;;;;;;;13.28;5.70;;;;;;;35.95;55.00;98662.20;1708919;83;21689;-67
2021/07/28 14:20:10;;;;;;;14.68;4.87;;;;;;;35.85;56.10;98658.81;1708611;84;21812;-67
2021/07/28 14:22:38;;;;;;;14.78;5.10;;;;;;;35.74;56.98;98657.31;1714024;82;20928;-65
2021/07/28 14:25:07;;;;;;;42.90;7.53;;;;;;;35.63;56.65;98657.20;1709332;83;20857;-70
2021/07/28 14:27:37;;;;;;;17.00;5.45;;;;;;;35.48;56.89;98660.38;1712155;83;20897;-69
2021/07/28 14:30:06;;;;;;;17.20;5.17;;;;;;;35.37;57.10;98659.37;1677445;84;20900;-69
2021/07/28 14:32:34;;;;;;;14.25;6.58;;;;;;;35.26;57.52;98661.12;1707872;83;21128;-69
2021/07/28 14:35:03;;;;;;;17.05;6.87;;;;;;;35.19;59.81;98662.34;1708609;83;20940;-69
2021/07/28 14:37:31;;;;;;;20.40;6.10;;;;;;;35.13;60.50;98662.20;1708593;84;20988;-69
2021/07/28 14:40:00;;;;;;;41.15;6.90;;;;;;;35.07;59.61;98654.17;1708480;83;21014;-69
2021/07/28 14:42:29;;;;;;;22.48;5.87;;;;;;;34.99;59.42;98654.17;1708850;84;20948;-69
2021/07/28 14:44:57;;;;;;;13.98;5.10;;;;;;;34.92;57.15;98652.65;1708569;83;21827;-69
2021/07/28 14:47:26;;;;;;;18.95;5.40;;;;;;;34.80;57.40;98662.76;1708972;84;20964;-69
2021/07/28 14:49:55;;;;;;;18.42;5.65;;;;;;;34.71;58.19;98663.30;1708610;83;21529;-68
2021/07/28 14:52:23;;;;;;;15.43;5.42;;;;;;;34.66;56.59;98666.55;1708620;84;21509;-67
2021/07/28 14:54:51;;;;;;;16.42;5.87;;;;;;;34.54;55.32;98661.10;1708540;83;21404;-67
2021/07/28 14:57:19;;;;;;;27.98;5.92;;;;;;;34.41;56.29;98661.59;1708833;83;21159;-66
2021/07/28 14:59:46;;;;;;;23.62;10.53;;;;;;;34.34;57.15;98666.05;1708423;83;20951;-68
2021/07/28 15:02:15;;;;;;;29.57;8.43;;;;;;;34.29;58.18;98662.95;1708788;83;21062;-69
2021/07/28 15:04:45;;;;;;;22.35;8.50;;;;;;;34.31;60.43;98663.62;1708775;83;21633;-69
2021/07/28 15:07:12;;;;;;;20.00;7.37;;;;;;;34.36;64.28;98665.88;1708692;83;20996;-68
2021/07/28 15:09:41;;;;;;;17.00;7.40;;;;;;;34.41;62.08;98664.34;1708438;83;21174;-69
2021/07/28 15:12:11;;;;;;;19.75;7.45;;;;;;;34.46;61.75;98665.70;1707984;83;21510;-69
2021/07/28 15:14:39;;;;;;;22.02;6.97;;;;;;;34.52;62.07;98665.86;1708536;84;20928;-69
2021/07/28 15:17:07;;;;;;;13.25;5.85;;;;;;;34.56;59.64;98658.19;1708654;83;20909;-69
2021/07/28 15:19:35;;;;;;;17.98;6.92;;;;;;;34.60;59.75;98657.67;1708518;83;20960;-68
2021/07/28 15:22:02;;;;;;;22.55;7.37;;;;;;;34.61;59.76;98656.64;1708940;83;22034;-68
2021/07/28 15:24:30;;;;;;;22.67;6.47;;;;;;;34.60;58.86;98657.67;1708399;84;20976;-69
2021/07/28 15:26:58;;;;;;;21.65;7.08;;;;;;;34.57;59.89;98653.05;1708421;83;20876;-71
2021/07/28 15:29:26;;;;;;;28.50;6.87;;;;;;;34.57;60.20;98657.16;1708861;83;21020;-72
2021/07/28 15:31:55;;;;;;;17.42;5.67;;;;;;;34.54;58.50;98653.40;1708623;83;21023;-72
2021/07/28 15:34:23;;;;;;;20.05;6.62;;;;;;;34.52;60.02;98649.95;1714790;82;21201;-71
2021/07/28 15:36:51;;;;;;;21.10;6.45;;;;;;;34.50;57.64;98659.70;1687072;83;21075;-72
2021/07/28 15:39:30;;;;;;;20.97;5.80;;;;;;;34.47;57.54;98655.94;1711481;82;21142;-72
2021/07/28 15:41:58;;;;;;;42.53;6.75;;;;;;;34.48;60.92;98659.53;1675674;84;20940;-71
2021/07/28 15:44:30;;;;;;;32.40;6.05;;;;;;;34.46;61.54;98654.75;1754730;80;20987;-72
2021/07/28 15:47:01;;;;;;;19.30;5.20;;;;;;;34.44;62.48;98658.17;1736777;80;22247;-71
2021/07/28 15:49:34;;;;;;;19.25;5.75;;;;;;;34.40;61.53;98663.14;1758791;80;20986;-72
2021/07/28 15:52:06;;;;;;;19.48;5.35;;;;;;;34.36;61.98;98671.36;1712336;82;21027;-73
2021/07/28 15:54:33;;;;;;;17.17;5.20;;;;;;;34.31;61.60;98678.69;1716532;83;21458;-73
2021/07/28 15:57:02;;;;;;;18.73;5.72;;;;;;;34.25;60.65;98688.09;1715741;82;20931;-72
2021/07/28 15:59:29;;;;;;;12.68;5.03;;;;;;;34.18;59.70;98693.41;1764540;79;21145;-72
2021/07/28 16:01:57;;;;;;;17.40;4.78;;;;;;;34.11;58.28;98706.06;1753843;80;20825;-72
2021/07/28 16:04:25;;;;;;;16.82;5.60;;;;;;;34.01;57.98;98714.39;1757710;79;20996;-72
2021/07/28 16:06:56;;;;;;;17.70;5.22;;;;;;;33.93;58.06;98723.95;1753819;79;20967;-73
2021/07/28 16:09:25;;;;;;;49.15;7.30;;;;;;;33.84;59.28;98716.76;1715275;82;21015;-72
2021/07/28 16:11:53;;;;;;;13.90;5.40;;;;;;;33.74;61.64;98715.50;1710547;82;21133;-72
2021/07/28 16:14:55;;;;;;;16.32;5.33;;;;;;;33.66;63.89;98716.85;1692593;83;20995;-72
2021/07/28 16:17:42;;;;;;;21.10;5.70;;;;;;;33.59;63.79;98719.91;1706332;82;21063;-72
2021/07/28 16:20:16;;;;;;;19.23;5.08;;;;;;;33.46;65.21;98723.59;1740166;80;21006;-73
2021/07/28 16:22:55;;;;;;;14.03;5.53;;;;;;;33.35;66.12;98729.35;1758351;79;21348;-72
2021/07/28 16:25:26;;;;;;;14.15;5.17;;;;;;;33.24;67.05;98721.41;1711280;83;21501;-72
2021/07/28 16:27:58;;;;;;;15.55;5.62;;;;;;;33.12;68.23;98720.84;1711168;82;20936;-71
2021/07/28 16:30:23;;;;;;;16.27;5.75;;;;;;;33.00;69.75;98726.20;1672592;85;21073;-70
2021/07/28 16:32:51;;;;;;;22.85;5.60;;;;;;;32.86;72.93;98723.56;1699075;83;20944;-67
2021/07/28 16:35:36;;;;;;;16.42;5.87;;;;;;;32.75;74.46;98730.63;1698993;84;20940;-68
2021/07/28 16:38:04;;;;;;;18.05;6.03;;;;;;;32.63;77.59;98729.13;1737864;81;21962;-70
2021/07/28 16:40:32;;;;;;;14.87;5.70;;;;;;;32.50;79.70;98733.14;1728599;81;20924;-68
2021/07/28 16:43:00;;;;;;;15.93;6.58;;;;;;;32.39;80.37;98733.89;1686363;83;20948;-68
2021/07/28 16:45:28;;;;;;;17.35;5.67;;;;;;;32.28;81.73;98720.50;1714698;83;21014;-69
2021/07/28 16:47:57;;;;;;;21.68;6.15;;;;;;;32.17;83.54;98719.69;1714875;82;21585;-69
2021/07/28 16:50:25;;;;;;;19.25;6.65;;;;;;;32.05;85.66;98725.50;1702585;83;21135;-68
2021/07/28 16:52:53;;;;;;;18.80;6.53;;;;;;;31.93;87.62;98720.28;1714834;82;20900;-67
2021/07/28 16:55:21;;;;;;;20.50;7.10;;;;;;;31.85;89.21;98710.65;1715064;82;20939;-69
2021/07/28 16:57:49;;;;;;;24.32;9.15;;;;;;;31.74;90.32;98701.33;1714963;82;20996;-69
2021/07/28 17:00:41;;;;;;;28.35;10.93;;;;;;;31.64;91.63;98703.20;1715117;82;21549;-75
2021/07/28 17:03:08;;;;;;;27.87;9.25;;;;;;;31.56;93.80;98713.51;1646340;86;21187;-70
2021/07/28 17:05:37;;;;;;;30.37;8.08;;;;;;;31.44;98.83;98707.91;1634416;86;21441;-69
2021/07/28 17:08:06;;;;;;;44.85;8.80;;;;;;;31.34;100.00;98703.53;1641944;86;20918;-67
2021/07/28 17:10:34;;;;;;;37.70;7.85;;;;;;;31.24;100.00;98707.16;1642569;86;21639;-67
2021/07/28 17:13:02;;;;;;;16.48;5.85;;;;;;;31.13;100.00;98710.52;1642748;86;21005;-69
2021/07/28 17:15:30;;;;;;;25.15;7.05;;;;;;;30.96;100.00;98714.38;1628642;86;21103;-68
2021/07/28 17:18:00;;;;;;;16.15;6.40;;;;;;;30.77;100.00;98709.00;1632583;85;20990;-68
2021/07/28 17:20:27;;;;;;;27.62;6.72;;;;;;;30.60;100.00;98705.64;1645430;87;20994;-69
2021/07/28 17:22:55;;;;;;;18.65;6.50;;;;;;;30.42;100.00;98711.45;1639375;86;20934;-73
2021/07/28 17:25:23;;;;;;;13.53;5.80;;;;;;;30.28;100.00;98712.25;1633392;86;21005;-67
2021/07/28 17:27:51;;;;;;;34.23;6.60;;;;;;;30.17;100.00;98707.43;1645386;85;21156;-69
2021/07/28 17:30:19;;;;;;;39.05;7.47;;;;;;;30.07;100.00;98707.44;1633354;86;21053;-70
2021/07/28 17:32:47;;;;;;;30.35;6.45;;;;;;;29.98;100.00;98696.88;1645514;87;21059;-69
2021/07/28 17:35:41;;;;;;;47.62;6.85;;;;;;;29.89;100.00;98702.31;1645493;87;20896;-67
2021/07/28 17:38:28;;;;;;;16.00;6.33;;;;;;;29.82;100.00;98707.46;1645090;86;20865;-69
2021/07/28 17:40:58;;;;;;;16.42;6.35;;;;;;;29.75;100.00;98705.77;1645519;87;21159;-69
2021/07/28 17:43:27;;;;;;;16.37;6.87;;;;;;;29.67;100.00;98716.99;1645622;87;21435;-69
2021/07/28 17:45:54;;;;;;;22.42;6.25;;;;;;;29.56;100.00;98730.70;1641506;87;20989;-70
2021/07/28 17:48:23;;;;;;;19.65;6.75;;;;;;;29.43;100.00;98730.45;1636857;86;20962;-69
2021/07/28 17:50:51;;;;;;;22.15;7.28;;;;;;;29.32;100.00;98730.50;1643838;86;21035;-69
2021/07/28 17:53:19;;;;;;;25.95;7.75;;;;;;;29.19;100.00;98724.45;1639006;87;21183;-69
2021/07/28 17:55:48;;;;;;;27.20;7.55;;;;;;;29.05;100.00;98729.75;1634950;86;21007;-69
2021/07/28 17:58:16;;;;;;;23.75;7.08;;;;;;;28.93;100.00;98724.55;1632008;86;20999;-69
2021/07/28 18:00:44;;;;;;;23.05;6.80;;;;;;;28.80;100.00;98716.06;1634607;87;20955;-69
2021/07/28 18:03:12;;;;;;;18.15;6.30;;;;;;;28.73;100.00;98714.88;1630960;85;20961;-69